CheckWX is a tool to help pilots better visualize weather data.  It is not intended as a substitute for an official pre-flight weather briefing.

12:26:41 UTC

EGXT TAF
RAF Wittering Airport
Wittering, United Kingdom
TAF EGXT 221024Z 2212/2218 21013KT 9999 OVC017 BECMG 2213/2215 BKN025

Mar-22@
12:00 UTC

Mar-22 @ 12:00 UTC

Mar-22@
13:00 UTC

Mar-22 @ 13:00 UTC

TAF EGXT 221024Z 2212/2218 21013KT 9999 OVC017
Wind
  • 210° at 13 KTS
Cloud Levels
  • Overcast at 1,700' AGL

Mar-22@
13:00 UTC

Mar-22 @ 13:00 UTC

Mar-22@
18:00 UTC

Mar-22 @ 18:00 UTC

BECMG 2213/2215 BKN025

Becoming

Becoming Conditions expected by Fri, Mar 22, 2019 @ 15:00 UTC

Wind
  • 210° at 13 KTS
Cloud Levels
  • Broken at 2,500' AGL